sensor_id;sensor_type;location;lat;lon;timestamp;temperature;humidity
13835;DHT22;6988;52.614;13.500;2023-07-13T00:01:21;17.60;99.90
13835;DHT22;6988;52.614;13.500;2023-07-13T00:06:14;17.60;99.90
13835;DHT22;6988;52.614;13.500;2023-07-13T00:11:06;17.60;99.90
13835;DHT22;6988;52.614;13.500;2023-07-13T00:15:58;17.60;99.90
13835;DHT22;6988;52.614;13.500;2023-07-13T00:20:53;17.60;99.90
13835;DHT22;6988;52.614;13.500;2023-07-13T00:25:45;17.60;99.90
13835;DHT22;6988;52.614;13.500;2023-07-13T00:30:37;17.60;99.90
13835;DHT22;6988;52.614;13.500;2023-07-13T00:35:31;17.50;99.90
13835;DHT22;6988;52.614;13.500;2023-07-13T00:40:25;17.40;99.90
13835;DHT22;6988;52.614;13.500;2023-07-13T00:51:01;17.20;99.90
13835;DHT22;6988;52.614;13.500;2023-07-13T00:55:56;17.10;99.90
13835;DHT22;6988;52.614;13.500;2023-07-13T01:00:49;17.00;99.90
13835;DHT22;6988;52.614;13.500;2023-07-13T01:05:43;17.00;99.90
13835;DHT22;6988;52.614;13.500;2023-07-13T01:10:35;16.90;99.90
13835;DHT22;6988;52.614;13.500;2023-07-13T01:15:37;16.90;99.90
13835;DHT22;6988;52.614;13.500;2023-07-13T01:20:32;16.80;99.90
13835;DHT22;6988;52.614;13.500;2023-07-13T01:25:28;16.60;99.90
13835;DHT22;6988;52.614;13.500;2023-07-13T01:30:20;16.50;99.90
13835;DHT22;6988;52.614;13.500;2023-07-13T01:35:11;16.50;99.90
13835;DHT22;6988;52.614;13.500;2023-07-13T01:40:05;16.50;99.90
13835;DHT22;6988;52.614;13.500;2023-07-13T01:45:01;16.40;99.90
13835;DHT22;6988;52.614;13.500;2023-07-13T01:49:54;16.40;99.90
13835;DHT22;6988;52.614;13.500;2023-07-13T01:54:46;16.30;99.90
13835;DHT22;6988;52.614;13.500;2023-07-13T01:59:41;16.20;99.90
13835;DHT22;6988;52.614;13.500;2023-07-13T02:04:34;16.10;99.90
13835;DHT22;6988;52.614;13.500;2023-07-13T02:09:26;16.00;99.90
13835;DHT22;6988;52.614;13.500;2023-07-13T02:14:18;16.00;99.90
13835;DHT22;6988;52.614;13.500;2023-07-13T02:19:10;15.90;99.90
13835;DHT22;6988;52.614;13.500;2023-07-13T02:24:04;15.90;99.90
13835;DHT22;6988;52.614;13.500;2023-07-13T02:28:56;15.80;99.90
13835;DHT22;6988;52.614;13.500;2023-07-13T02:33:48;15.80;99.90
13835;DHT22;6988;52.614;13.500;2023-07-13T02:38:40;15.80;99.90
13835;DHT22;6988;52.614;13.500;2023-07-13T02:43:33;15.70;99.90
13835;DHT22;6988;52.614;13.500;2023-07-13T02:48:25;15.70;99.90
13835;DHT22;6988;52.614;13.500;2023-07-13T02:53:17;15.70;99.90
13835;DHT22;6988;52.614;13.500;2023-07-13T02:58:09;15.70;99.90
13835;DHT22;6988;52.614;13.500;2023-07-13T03:03:02;15.70;99.90
13835;DHT22;6988;52.614;13.500;2023-07-13T03:07:54;15.70;99.90
13835;DHT22;6988;52.614;13.500;2023-07-13T03:12:46;15.70;99.90
13835;DHT22;6988;52.614;13.500;2023-07-13T03:17:47;15.70;99.90
13835;DHT22;6988;52.614;13.500;2023-07-13T03:22:41;15.70;99.90
13835;DHT22;6988;52.614;13.500;2023-07-13T03:27:33;15.70;99.90
13835;DHT22;6988;52.614;13.500;2023-07-13T03:32:26;15.70;99.90
13835;DHT22;6988;52.614;13.500;2023-07-13T03:37:18;15.60;99.90
13835;DHT22;6988;52.614;13.500;2023-07-13T03:42:11;15.60;99.90
13835;DHT22;6988;52.614;13.500;2023-07-13T03:47:04;15.60;99.90
13835;DHT22;6988;52.614;13.500;2023-07-13T03:51:59;15.70;99.90
13835;DHT22;6988;52.614;13.500;2023-07-13T03:56:51;15.80;99.90
13835;DHT22;6988;52.614;13.500;2023-07-13T04:01:46;15.80;99.90
13835;DHT22;6988;52.614;13.500;2023-07-13T04:06:38;15.90;99.90
13835;DHT22;6988;52.614;13.500;2023-07-13T04:11:31;15.90;99.90
13835;DHT22;6988;52.614;13.500;2023-07-13T04:16:25;15.90;99.90
13835;DHT22;6988;52.614;13.500;2023-07-13T04:21:19;15.90;99.90
13835;DHT22;6988;52.614;13.500;2023-07-13T04:26:12;16.00;99.90
13835;DHT22;6988;52.614;13.500;2023-07-13T04:31:04;16.00;99.90
13835;DHT22;6988;52.614;13.500;2023-07-13T04:35:57;16.10;99.90
13835;DHT22;6988;52.614;13.500;2023-07-13T04:40:51;16.20;99.90
13835;DHT22;6988;52.614;13.500;2023-07-13T04:45:43;16.30;99.90
13835;DHT22;6988;52.614;13.500;2023-07-13T04:50:36;16.50;99.90
13835;DHT22;6988;52.614;13.500;2023-07-13T04:55:28;16.60;99.90
13835;DHT22;6988;52.614;13.500;2023-07-13T05:00:22;16.70;99.90
13835;DHT22;6988;52.614;13.500;2023-07-13T05:05:14;16.90;99.90
13835;DHT22;6988;52.614;13.500;2023-07-13T05:10:07;17.00;99.90
13835;DHT22;6988;52.614;13.500;2023-07-13T05:15:00;17.10;99.90
13835;DHT22;6988;52.614;13.500;2023-07-13T05:19:54;17.20;99.90
13835;DHT22;6988;52.614;13.500;2023-07-13T05:24:46;17.30;99.90
13835;DHT22;6988;52.614;13.500;2023-07-13T05:29:38;17.40;99.90
13835;DHT22;6988;52.614;13.500;2023-07-13T05:34:29;17.50;99.90
13835;DHT22;6988;52.614;13.500;2023-07-13T05:39:23;17.60;99.90
13835;DHT22;6988;52.614;13.500;2023-07-13T05:44:15;17.70;99.90
13835;DHT22;6988;52.614;13.500;2023-07-13T05:49:06;17.80;99.90
13835;DHT22;6988;52.614;13.500;2023-07-13T05:54:00;17.90;99.90
13835;DHT22;6988;52.614;13.500;2023-07-13T05:58:53;18.00;99.90
13835;DHT22;6988;52.614;13.500;2023-07-13T06:03:45;18.10;99.90
13835;DHT22;6988;52.614;13.500;2023-07-13T06:08:39;18.20;99.90
13835;DHT22;6988;52.614;13.500;2023-07-13T06:13:31;18.40;99.90
13835;DHT22;6988;52.614;13.500;2023-07-13T06:18:25;18.60;99.90
13835;DHT22;6988;52.614;13.500;2023-07-13T06:23:17;18.70;99.90
13835;DHT22;6988;52.614;13.500;2023-07-13T06:28:08;19.00;99.90
13835;DHT22;6988;52.614;13.500;2023-07-13T06:33:00;19.20;99.90
13835;DHT22;6988;52.614;13.500;2023-07-13T06:37:53;19.50;99.90
13835;DHT22;6988;52.614;13.500;2023-07-13T06:42:45;19.80;99.90
13835;DHT22;6988;52.614;13.500;2023-07-13T06:47:38;20.20;99.90
13835;DHT22;6988;52.614;13.500;2023-07-13T06:52:29;20.50;99.90
13835;DHT22;6988;52.614;13.500;2023-07-13T06:57:22;20.70;99.90
13835;DHT22;6988;52.614;13.500;2023-07-13T07:02:15;21.10;99.90
13835;DHT22;6988;52.614;13.500;2023-07-13T07:07:06;21.40;99.90
13835;DHT22;6988;52.614;13.500;2023-07-13T07:11:58;21.60;99.90
13835;DHT22;6988;52.614;13.500;2023-07-13T07:16:51;22.10;99.90
13835;DHT22;6988;52.614;13.500;2023-07-13T07:21:43;22.40;99.90
13835;DHT22;6988;52.614;13.500;2023-07-13T07:26:35;22.80;99.90
13835;DHT22;6988;52.614;13.500;2023-07-13T07:31:27;23.10;99.90
13835;DHT22;6988;52.614;13.500;2023-07-13T07:36:20;23.10;99.90
13835;DHT22;6988;52.614;13.500;2023-07-13T07:41:12;23.30;99.90
13835;DHT22;6988;52.614;13.500;2023-07-13T07:46:04;23.40;99.90
13835;DHT22;6988;52.614;13.500;2023-07-13T07:50:56;23.50;99.90
13835;DHT22;6988;52.614;13.500;2023-07-13T07:55:50;23.60;99.90
13835;DHT22;6988;52.614;13.500;2023-07-13T08:00:42;23.90;99.90
13835;DHT22;6988;52.614;13.500;2023-07-13T08:05:35;24.10;99.90
13835;DHT22;6988;52.614;13.500;2023-07-13T08:10:28;24.30;99.90
13835;DHT22;6988;52.614;13.500;2023-07-13T08:15:22;24.50;99.90
13835;DHT22;6988;52.614;13.500;2023-07-13T08:20:14;24.50;99.90
13835;DHT22;6988;52.614;13.500;2023-07-13T08:25:06;24.60;99.90
13835;DHT22;6988;52.614;13.500;2023-07-13T08:29:59;24.70;99.90
13835;DHT22;6988;52.614;13.500;2023-07-13T08:34:52;25.50;99.90
13835;DHT22;6988;52.614;13.500;2023-07-13T08:39:44;25.60;99.90
13835;DHT22;6988;52.614;13.500;2023-07-13T08:44:40;25.20;99.90
13835;DHT22;6988;52.614;13.500;2023-07-13T08:49:43;24.50;99.90
13835;DHT22;6988;52.614;13.500;2023-07-13T08:54:41;24.50;99.90
13835;DHT22;6988;52.614;13.500;2023-07-13T08:59:38;24.90;99.90
13835;DHT22;6988;52.614;13.500;2023-07-13T09:04:33;25.00;99.90
13835;DHT22;6988;52.614;13.500;2023-07-13T09:09:39;25.20;99.90
13835;DHT22;6988;52.614;13.500;2023-07-13T09:14:45;25.20;99.90
13835;DHT22;6988;52.614;13.500;2023-07-13T09:19:40;25.30;99.90
13835;DHT22;6988;52.614;13.500;2023-07-13T09:24:41;25.30;99.90
13835;DHT22;6988;52.614;13.500;2023-07-13T09:29:58;26.00;99.90
13835;DHT22;6988;52.614;13.500;2023-07-13T09:35:00;26.00;99.90
13835;DHT22;6988;52.614;13.500;2023-07-13T09:39:56;26.00;99.90
13835;DHT22;6988;52.614;13.500;2023-07-13T09:44:55;26.10;99.90
13835;DHT22;6988;52.614;13.500;2023-07-13T09:49:54;26.40;99.90
13835;DHT22;6988;52.614;13.500;2023-07-13T09:54:52;26.70;98.70
13835;DHT22;6988;52.614;13.500;2023-07-13T09:59:52;27.20;99.80
13835;DHT22;6988;52.614;13.500;2023-07-13T10:04:56;27.70;98.70
13835;DHT22;6988;52.614;13.500;2023-07-13T10:09:52;28.20;97.30
13835;DHT22;6988;52.614;13.500;2023-07-13T10:14:44;28.40;94.80
13835;DHT22;6988;52.614;13.500;2023-07-13T10:19:40;28.10;94.30
13835;DHT22;6988;52.614;13.500;2023-07-13T10:24:37;28.30;95.30
13835;DHT22;6988;52.614;13.500;2023-07-13T10:29:29;28.00;94.80
13835;DHT22;6988;52.614;13.500;2023-07-13T10:34:28;27.30;96.80
13835;DHT22;6988;52.614;13.500;2023-07-13T10:39:26;26.60;96.50
13835;DHT22;6988;52.614;13.500;2023-07-13T10:44:23;26.50;99.60
13835;DHT22;6988;52.614;13.500;2023-07-13T10:49:19;26.70;97.40
13835;DHT22;6988;52.614;13.500;2023-07-13T10:54:20;27.10;98.00
13835;DHT22;6988;52.614;13.500;2023-07-13T10:59:19;27.40;97.00
13835;DHT22;6988;52.614;13.500;2023-07-13T11:04:19;27.70;97.10
13835;DHT22;6988;52.614;13.500;2023-07-13T11:09:31;27.80;94.90
13835;DHT22;6988;52.614;13.500;2023-07-13T11:14:35;27.80;96.00
13835;DHT22;6988;52.614;13.500;2023-07-13T11:19:40;28.50;95.20
13835;DHT22;6988;52.614;13.500;2023-07-13T11:24:49;29.10;92.00
13835;DHT22;6988;52.614;13.500;2023-07-13T11:29:52;29.10;91.00
13835;DHT22;6988;52.614;13.500;2023-07-13T11:34:59;28.50;92.50
13835;DHT22;6988;52.614;13.500;2023-07-13T11:39:52;28.90;89.20
13835;DHT22;6988;52.614;13.500;2023-07-13T11:44:47;29.10;85.50
13835;DHT22;6988;52.614;13.500;2023-07-13T11:49:43;28.80;83.70
13835;DHT22;6988;52.614;13.500;2023-07-13T11:54:47;28.90;85.90
13835;DHT22;6988;52.614;13.500;2023-07-13T11:59:45;28.80;86.30
13835;DHT22;6988;52.614;13.500;2023-07-13T12:04:37;28.80;87.80
13835;DHT22;6988;52.614;13.500;2023-07-13T12:09:34;29.00;87.70
13835;DHT22;6988;52.614;13.500;2023-07-13T12:14:27;29.50;87.50
13835;DHT22;6988;52.614;13.500;2023-07-13T12:19:21;29.40;87.40
13835;DHT22;6988;52.614;13.500;2023-07-13T12:24:16;29.10;86.30
13835;DHT22;6988;52.614;13.500;2023-07-13T12:29:16;29.50;87.10
13835;DHT22;6988;52.614;13.500;2023-07-13T12:34:11;29.20;81.00
13835;DHT22;6988;52.614;13.500;2023-07-13T12:39:13;28.60;80.90
13835;DHT22;6988;52.614;13.500;2023-07-13T12:44:12;28.70;81.90
13835;DHT22;6988;52.614;13.500;2023-07-13T12:49:07;28.50;78.20
13835;DHT22;6988;52.614;13.500;2023-07-13T12:54:07;28.50;82.10
13835;DHT22;6988;52.614;13.500;2023-07-13T12:59:16;28.70;82.40
13835;DHT22;6988;52.614;13.500;2023-07-13T13:04:11;28.50;84.70
13835;DHT22;6988;52.614;13.500;2023-07-13T13:09:11;28.30;85.00
13835;DHT22;6988;52.614;13.500;2023-07-13T13:14:05;28.00;87.10
13835;DHT22;6988;52.614;13.500;2023-07-13T13:19:01;28.20;87.20
13835;DHT22;6988;52.614;13.500;2023-07-13T13:24:08;28.80;84.40
13835;DHT22;6988;52.614;13.500;2023-07-13T13:29:09;29.00;83.90
13835;DHT22;6988;52.614;13.500;2023-07-13T13:34:08;28.90;82.10
13835;DHT22;6988;52.614;13.500;2023-07-13T13:39:02;29.10;82.10
13835;DHT22;6988;52.614;13.500;2023-07-13T13:43:57;29.40;81.30
13835;DHT22;6988;52.614;13.500;2023-07-13T13:48:49;29.60;82.50
13835;DHT22;6988;52.614;13.500;2023-07-13T13:53:42;29.40;78.40
13835;DHT22;6988;52.614;13.500;2023-07-13T13:58:34;29.20;82.20
13835;DHT22;6988;52.614;13.500;2023-07-13T14:03:26;29.40;80.90
13835;DHT22;6988;52.614;13.500;2023-07-13T14:08:20;29.60;79.20
13835;DHT22;6988;52.614;13.500;2023-07-13T14:13:18;29.70;79.70
13835;DHT22;6988;52.614;13.500;2023-07-13T14:18:13;29.60;80.60
13835;DHT22;6988;52.614;13.500;2023-07-13T14:23:08;29.50;78.90
13835;DHT22;6988;52.614;13.500;2023-07-13T14:28:00;29.10;79.70
13835;DHT22;6988;52.614;13.500;2023-07-13T14:33:07;28.60;78.80
13835;DHT22;6988;52.614;13.500;2023-07-13T14:38:00;28.40;80.80
13835;DHT22;6988;52.614;13.500;2023-07-13T14:42:52;28.40;78.60
13835;DHT22;6988;52.614;13.500;2023-07-13T14:47:44;28.30;80.40
13835;DHT22;6988;52.614;13.500;2023-07-13T14:52:38;28.00;81.70
13835;DHT22;6988;52.614;13.500;2023-07-13T14:57:29;27.90;79.90
13835;DHT22;6988;52.614;13.500;2023-07-13T15:02:27;27.90;81.00
13835;DHT22;6988;52.614;13.500;2023-07-13T15:07:21;28.00;79.70
13835;DHT22;6988;52.614;13.500;2023-07-13T15:12:15;27.90;79.80
13835;DHT22;6988;52.614;13.500;2023-07-13T15:17:26;27.80;77.50
13835;DHT22;6988;52.614;13.500;2023-07-13T15:22:22;27.60;78.40
13835;DHT22;6988;52.614;13.500;2023-07-13T15:27:16;27.60;76.90
13835;DHT22;6988;52.614;13.500;2023-07-13T15:32:11;27.60;77.20
13835;DHT22;6988;52.614;13.500;2023-07-13T15:37:11;27.50;79.20
13835;DHT22;6988;52.614;13.500;2023-07-13T15:42:07;27.40;77.60
13835;DHT22;6988;52.614;13.500;2023-07-13T15:47:10;27.30;77.50
13835;DHT22;6988;52.614;13.500;2023-07-13T15:52:04;27.10;79.10
13835;DHT22;6988;52.614;13.500;2023-07-13T15:57:00;27.20;78.30
13835;DHT22;6988;52.614;13.500;2023-07-13T16:01:53;27.00;81.00
13835;DHT22;6988;52.614;13.500;2023-07-13T16:06:47;26.70;81.20
13835;DHT22;6988;52.614;13.500;2023-07-13T16:11:40;26.90;80.90
13835;DHT22;6988;52.614;13.500;2023-07-13T16:16:33;26.80;80.20
13835;DHT22;6988;52.614;13.500;2023-07-13T16:21:27;26.60;82.00
13835;DHT22;6988;52.614;13.500;2023-07-13T16:26:28;26.70;82.10
13835;DHT22;6988;52.614;13.500;2023-07-13T16:31:32;26.70;81.80
13835;DHT22;6988;52.614;13.500;2023-07-13T16:36:25;26.60;82.40
13835;DHT22;6988;52.614;13.500;2023-07-13T16:41:18;26.30;83.00
13835;DHT22;6988;52.614;13.500;2023-07-13T16:46:12;26.20;82.80
13835;DHT22;6988;52.614;13.500;2023-07-13T16:51:09;25.90;84.40
13835;DHT22;6988;52.614;13.500;2023-07-13T16:56:02;25.60;84.20
13835;DHT22;6988;52.614;13.500;2023-07-13T17:00:56;25.40;86.80
13835;DHT22;6988;52.614;13.500;2023-07-13T17:05:50;25.20;87.00
13835;DHT22;6988;52.614;13.500;2023-07-13T17:10:42;25.00;88.00
13835;DHT22;6988;52.614;13.500;2023-07-13T17:15:35;24.80;97.60
13835;DHT22;6988;52.614;13.500;2023-07-13T17:20:30;23.60;99.90
13835;DHT22;6988;52.614;13.500;2023-07-13T17:25:28;22.20;99.90
13835;DHT22;6988;52.614;13.500;2023-07-13T17:30:22;21.20;99.90
13835;DHT22;6988;52.614;13.500;2023-07-13T17:35:19;20.50;99.90
13835;DHT22;6988;52.614;13.500;2023-07-13T17:40:15;19.90;99.90
13835;DHT22;6988;52.614;13.500;2023-07-13T17:45:10;19.50;99.90
13835;DHT22;6988;52.614;13.500;2023-07-13T17:50:11;19.30;99.90
13835;DHT22;6988;52.614;13.500;2023-07-13T17:55:12;19.00;99.90
13835;DHT22;6988;52.614;13.500;2023-07-13T18:00:06;18.80;99.90
13835;DHT22;6988;52.614;13.500;2023-07-13T18:05:18;18.70;99.90
13835;DHT22;6988;52.614;13.500;2023-07-13T18:10:13;18.60;99.90
13835;DHT22;6988;52.614;13.500;2023-07-13T18:15:08;18.40;99.90
13835;DHT22;6988;52.614;13.500;2023-07-13T18:20:01;18.30;99.90
13835;DHT22;6988;52.614;13.500;2023-07-13T18:25:11;18.20;99.90
13835;DHT22;6988;52.614;13.500;2023-07-13T18:30:05;18.30;99.90
13835;DHT22;6988;52.614;13.500;2023-07-13T18:34:59;18.30;99.90
13835;DHT22;6988;52.614;13.500;2023-07-13T18:39:52;18.40;99.90
13835;DHT22;6988;52.614;13.500;2023-07-13T18:44:45;18.40;99.90
13835;DHT22;6988;52.614;13.500;2023-07-13T18:49:37;18.50;99.90
13835;DHT22;6988;52.614;13.500;2023-07-13T18:54:29;18.50;99.90
13835;DHT22;6988;52.614;13.500;2023-07-13T18:59:23;18.50;99.90
13835;DHT22;6988;52.614;13.500;2023-07-13T19:04:29;18.50;99.90
13835;DHT22;6988;52.614;13.500;2023-07-13T19:09:22;18.60;99.90
13835;DHT22;6988;52.614;13.500;2023-07-13T19:14:19;18.60;99.90
13835;DHT22;6988;52.614;13.500;2023-07-13T19:19:13;18.60;99.90
13835;DHT22;6988;52.614;13.500;2023-07-13T19:24:12;18.60;99.90
13835;DHT22;6988;52.614;13.500;2023-07-13T19:29:13;18.50;99.90
13835;DHT22;6988;52.614;13.500;2023-07-13T19:34:16;18.50;99.90
13835;DHT22;6988;52.614;13.500;2023-07-13T19:39:19;18.40;99.90
13835;DHT22;6988;52.614;13.500;2023-07-13T19:44:18;18.30;99.90
13835;DHT22;6988;52.614;13.500;2023-07-13T19:49:11;18.20;99.90
13835;DHT22;6988;52.614;13.500;2023-07-13T19:54:12;18.20;99.90
13835;DHT22;6988;52.614;13.500;2023-07-13T19:59:18;18.10;99.90
13835;DHT22;6988;52.614;13.500;2023-07-13T20:04:14;18.00;99.90
13835;DHT22;6988;52.614;13.500;2023-07-13T20:09:15;17.90;99.90
13835;DHT22;6988;52.614;13.500;2023-07-13T20:14:16;17.90;99.90
13835;DHT22;6988;52.614;13.500;2023-07-13T20:19:11;17.80;99.90
13835;DHT22;6988;52.614;13.500;2023-07-13T20:24:12;17.70;99.90
13835;DHT22;6988;52.614;13.500;2023-07-13T20:29:07;17.70;99.90
13835;DHT22;6988;52.614;13.500;2023-07-13T20:33:59;17.60;99.90
13835;DHT22;6988;52.614;13.500;2023-07-13T20:38:52;17.50;99.90
13835;DHT22;6988;52.614;13.500;2023-07-13T20:43:47;17.40;99.90
13835;DHT22;6988;52.614;13.500;2023-07-13T20:48:40;17.40;99.90
13835;DHT22;6988;52.614;13.500;2023-07-13T20:53:38;17.30;99.90
13835;DHT22;6988;52.614;13.500;2023-07-13T20:58:30;17.30;99.90
13835;DHT22;6988;52.614;13.500;2023-07-13T21:03:25;17.30;99.90
13835;DHT22;6988;52.614;13.500;2023-07-13T21:08:20;17.30;99.90
13835;DHT22;6988;52.614;13.500;2023-07-13T21:13:15;17.30;99.90
13835;DHT22;6988;52.614;13.500;2023-07-13T21:18:16;17.30;99.90
13835;DHT22;6988;52.614;13.500;2023-07-13T21:23:24;17.30;99.90
13835;DHT22;6988;52.614;13.500;2023-07-13T21:28:19;17.30;99.90
13835;DHT22;6988;52.614;13.500;2023-07-13T21:33:12;17.20;99.90
13835;DHT22;6988;52.614;13.500;2023-07-13T21:38:16;17.30;99.90
13835;DHT22;6988;52.614;13.500;2023-07-13T21:43:12;17.10;99.90
13835;DHT22;6988;52.614;13.500;2023-07-13T22:04:21;16.70;99.90
13835;DHT22;6988;52.614;13.500;2023-07-13T22:09:17;16.50;99.90
13835;DHT22;6988;52.614;13.500;2023-07-13T22:14:11;16.40;99.90
13835;DHT22;6988;52.614;13.500;2023-07-13T22:19:11;16.40;99.90
13835;DHT22;6988;52.614;13.500;2023-07-13T22:24:13;16.40;99.90
13835;DHT22;6988;52.614;13.500;2023-07-13T22:29:11;16.40;99.90
13835;DHT22;6988;52.614;13.500;2023-07-13T22:34:05;16.50;99.90
13835;DHT22;6988;52.614;13.500;2023-07-13T22:39:03;16.50;99.90
13835;DHT22;6988;52.614;13.500;2023-07-13T22:43:57;16.60;99.90
13835;DHT22;6988;52.614;13.500;2023-07-13T22:48:54;16.60;99.90
13835;DHT22;6988;52.614;13.500;2023-07-13T22:53:48;16.70;99.90
13835;DHT22;6988;52.614;13.500;2023-07-13T22:58:41;16.70;99.90
13835;DHT22;6988;52.614;13.500;2023-07-13T23:03:35;16.70;99.90
13835;DHT22;6988;52.614;13.500;2023-07-13T23:08:28;16.70;99.90
13835;DHT22;6988;52.614;13.500;2023-07-13T23:13:21;16.70;99.90
13835;DHT22;6988;52.614;13.500;2023-07-13T23:18:15;16.70;99.90
13835;DHT22;6988;52.614;13.500;2023-07-13T23:23:12;16.60;99.90
13835;DHT22;6988;52.614;13.500;2023-07-13T23:28:05;16.50;99.90
13835;DHT22;6988;52.614;13.500;2023-07-13T23:33:00;16.50;99.90
13835;DHT22;6988;52.614;13.500;2023-07-13T23:37:54;16.40;99.90
13835;DHT22;6988;52.614;13.500;2023-07-13T23:42:48;16.40;99.90
13835;DHT22;6988;52.614;13.500;2023-07-13T23:47:41;16.40;99.90
13835;DHT22;6988;52.614;13.500;2023-07-13T23:52:35;16.40;99.90
13835;DHT22;6988;52.614;13.500;2023-07-13T23:57:27;16.30;99.90
